createdAt,value
2018-09-13T00:02:10.860Z,19.35
2018-09-13T00:04:39.065Z,19.27
2018-09-13T00:07:07.259Z,19.22
2018-09-13T00:09:35.529Z,19.07
2018-09-13T00:12:03.859Z,18.95
2018-09-13T00:14:32.101Z,18.87
2018-09-13T00:17:00.375Z,18.79
2018-09-13T00:19:28.577Z,18.80
2018-09-13T00:21:56.774Z,18.67
2018-09-13T00:24:25.192Z,18.66
2018-09-13T00:26:53.431Z,18.89
2018-09-13T00:29:21.644Z,18.96
2018-09-13T00:31:49.966Z,18.97
2018-09-13T00:34:18.193Z,18.93
2018-09-13T00:36:46.385Z,18.88
2018-09-13T00:39:14.576Z,18.87
2018-09-13T00:41:42.849Z,18.86
2018-09-13T00:44:11.053Z,18.91
2018-09-13T00:46:39.332Z,18.85
2018-09-13T00:49:07.650Z,18.69
2018-09-13T00:51:35.977Z,18.84
2018-09-13T00:54:04.210Z,18.74
2018-09-13T00:56:32.613Z,18.71
2018-09-13T00:59:00.805Z,18.57
2018-09-13T01:01:29.089Z,18.53
2018-09-13T01:03:57.285Z,18.44
2018-09-13T01:06:25.537Z,18.37
2018-09-13T01:08:53.833Z,18.35
2018-09-13T01:11:22.121Z,18.35
2018-09-13T01:13:50.474Z,18.34
2018-09-13T01:16:18.640Z,18.29
2018-09-13T01:18:46.955Z,18.23
2018-09-13T01:21:15.274Z,18.12
2018-09-13T01:23:43.469Z,18.05
2018-09-13T01:26:11.765Z,18.04
2018-09-13T01:28:40.041Z,18.07
2018-09-13T01:31:08.338Z,18.08
2018-09-13T01:33:36.630Z,18.20
2018-09-13T01:36:04.936Z,18.17
2018-09-13T01:38:33.229Z,18.41
2018-09-13T01:41:01.428Z,18.15
2018-09-13T01:43:29.637Z,18.02
2018-09-13T01:45:57.817Z,18.02
2018-09-13T01:48:26.018Z,17.96
2018-09-13T01:50:54.215Z,17.96
2018-09-13T01:53:22.415Z,17.93
2018-09-13T01:55:50.730Z,17.96
2018-09-13T01:58:18.959Z,17.85
2018-09-13T02:00:47.147Z,18.04
2018-09-13T02:03:15.348Z,18.25
2018-09-13T02:05:43.541Z,18.10
2018-09-13T02:08:11.733Z,17.86
2018-09-13T02:10:39.921Z,17.88
2018-09-13T02:13:08.109Z,17.91
2018-09-13T02:15:36.297Z,18.06
2018-09-13T02:18:04.485Z,17.96
2018-09-13T02:20:32.679Z,18.00
2018-09-13T02:23:00.962Z,17.96
2018-09-13T02:25:29.157Z,17.91
2018-09-13T02:27:57.360Z,17.93
2018-09-13T02:30:25.551Z,18.04
2018-09-13T02:32:53.809Z,18.04
2018-09-13T02:35:22.009Z,18.06
2018-09-13T02:37:50.409Z,18.16
2018-09-13T02:40:18.610Z,18.10
2018-09-13T02:42:46.793Z,18.20
2018-09-13T02:45:15.065Z,18.07
2018-09-13T02:47:43.254Z,18.18
2018-09-13T02:50:11.458Z,18.17
2018-09-13T02:52:39.713Z,18.31
2018-09-13T02:55:07.925Z,18.39
2018-09-13T02:57:36.201Z,18.16
2018-09-13T03:00:04.721Z,18.12
2018-09-13T03:02:32.913Z,18.15
2018-09-13T03:05:01.162Z,18.07
2018-09-13T03:07:29.357Z,17.93
2018-09-13T03:09:57.581Z,17.97
2018-09-13T03:12:25.778Z,17.98
2018-09-13T03:14:53.970Z,18.01
2018-09-13T03:17:22.154Z,18.29
2018-09-13T03:19:50.349Z,18.21
2018-09-13T03:22:18.547Z,18.08
2018-09-13T03:24:46.753Z,17.90
2018-09-13T03:27:14.937Z,17.85
2018-09-13T03:29:43.161Z,17.81
2018-09-13T03:32:11.353Z,17.81
2018-09-13T03:34:39.557Z,17.83
2018-09-13T03:37:07.773Z,17.99
2018-09-13T03:39:35.977Z,18.12
2018-09-13T03:42:04.346Z,18.11
2018-09-13T03:44:32.478Z,18.04
2018-09-13T03:47:00.677Z,18.02
2018-09-13T03:49:28.933Z,18.04
2018-09-13T03:51:57.113Z,18.03
2018-09-13T03:54:25.329Z,18.01
2018-09-13T03:56:53.581Z,18.22
2018-09-13T03:59:21.914Z,18.17
2018-09-13T04:01:50.125Z,18.14
2018-09-13T04:04:18.373Z,18.12
2018-09-13T04:06:46.557Z,18.23
2018-09-13T04:09:14.836Z,18.23
2018-09-13T04:11:42.957Z,18.18
2018-09-13T04:14:11.165Z,18.25
2018-09-13T04:16:39.413Z,18.30
2018-09-13T04:19:07.605Z,18.30
2018-09-13T04:21:35.805Z,18.29
2018-09-13T04:24:04.009Z,18.29
2018-09-13T04:26:32.305Z,18.27
2018-09-13T04:29:00.537Z,18.22
2018-09-13T04:31:28.805Z,18.19
2018-09-13T04:33:57.005Z,18.12
2018-09-13T04:36:25.285Z,18.13
2018-09-13T04:38:53.768Z,18.12
2018-09-13T04:41:22.002Z,18.04
2018-09-13T04:43:50.205Z,18.01
2018-09-13T04:46:18.437Z,18.13
2018-09-13T04:48:46.635Z,18.13
2018-09-13T04:51:14.913Z,18.17
2018-09-13T04:53:43.122Z,18.27
2018-09-13T04:56:11.371Z,18.34
2018-09-13T04:58:39.601Z,18.12
2018-09-13T05:01:07.872Z,18.05
2018-09-13T05:03:36.169Z,18.10
2018-09-13T05:06:04.416Z,18.18
2018-09-13T05:08:32.613Z,18.37
2018-09-13T05:11:00.807Z,18.35
2018-09-13T05:13:29.013Z,18.32
2018-09-13T05:15:57.301Z,18.45
2018-09-13T05:18:25.506Z,18.38
2018-09-13T05:20:53.697Z,18.25
2018-09-13T05:23:23.591Z,18.23
2018-09-13T05:25:51.913Z,18.21
2018-09-13T05:28:20.185Z,18.43
2018-09-13T05:30:48.469Z,18.23
2018-09-13T05:33:16.764Z,18.19
2018-09-13T05:35:44.950Z,18.30
2018-09-13T05:38:13.237Z,18.44
2018-09-13T05:40:41.445Z,18.41
2018-09-13T05:43:09.749Z,18.48
2018-09-13T05:45:38.018Z,18.38
2018-09-13T05:48:06.294Z,18.54
2018-09-13T05:50:34.496Z,18.62
2018-09-13T05:53:02.689Z,18.44
2018-09-13T05:55:30.979Z,18.42
2018-09-13T05:57:59.241Z,18.58
2018-09-13T06:00:27.543Z,18.64
2018-09-13T06:02:55.986Z,18.52
2018-09-13T06:05:24.198Z,18.49
2018-09-13T06:07:52.579Z,18.72
2018-09-13T06:10:20.770Z,18.56
2018-09-13T06:12:48.969Z,18.46
2018-09-13T06:15:17.157Z,18.25
2018-09-13T06:17:45.406Z,18.33
2018-09-13T06:20:13.617Z,18.45
2018-09-13T06:22:41.815Z,18.52
2018-09-13T06:25:10.017Z,18.66
2018-09-13T06:27:38.222Z,18.77
2018-09-13T06:30:06.425Z,18.60
2018-09-13T06:32:34.626Z,18.66
2018-09-13T06:35:02.817Z,18.66
2018-09-13T06:37:31.058Z,18.61
2018-09-13T06:39:59.260Z,18.43
2018-09-13T06:42:27.532Z,18.59
2018-09-13T06:44:55.673Z,18.62
2018-09-13T06:47:23.874Z,18.57
2018-09-13T06:49:52.118Z,18.56
2018-09-13T06:52:20.317Z,18.56
2018-09-13T06:54:49.514Z,18.51
2018-09-13T06:57:17.736Z,18.43
2018-09-13T06:59:45.926Z,18.39
2018-09-13T07:02:14.141Z,18.48
2018-09-13T07:04:42.611Z,18.48
2018-09-13T07:07:10.994Z,18.61
2018-09-13T07:09:39.198Z,18.61
2018-09-13T07:12:07.389Z,18.88
2018-09-13T07:14:35.626Z,18.79
2018-09-13T07:17:03.821Z,18.99
2018-09-13T07:19:32.027Z,18.99
2018-09-13T07:22:00.519Z,19.15
2018-09-13T07:24:28.717Z,19.36
2018-09-13T07:26:56.952Z,19.60
2018-09-13T07:29:25.234Z,19.70
2018-09-13T07:31:53.453Z,19.86
2018-09-13T07:34:21.661Z,19.96
2018-09-13T07:36:49.908Z,20.20
2018-09-13T07:39:18.081Z,20.20
2018-09-13T07:41:46.278Z,20.60
2018-09-13T07:44:14.485Z,20.86
2018-09-13T07:46:42.705Z,20.69
2018-09-13T07:49:10.974Z,20.55
2018-09-13T07:51:39.138Z,20.70
2018-09-13T07:54:07.337Z,20.60
2018-09-13T07:56:35.594Z,20.53
2018-09-13T07:59:03.841Z,20.50
2018-09-13T08:01:32.022Z,20.75
2018-09-13T08:04:00.221Z,20.88
2018-09-13T08:06:28.422Z,21.17
2018-09-13T08:08:56.663Z,21.43
2018-09-13T08:13:52.141Z,21.46
2018-09-13T08:16:20.343Z,21.43
2018-09-13T08:18:48.549Z,21.17
2018-09-13T08:21:16.794Z,21.56
2018-09-13T08:23:45.037Z,21.67
2018-09-13T08:26:13.321Z,21.52
2018-09-13T08:28:41.522Z,21.61
2018-09-13T08:31:09.710Z,21.74
2018-09-13T08:33:37.917Z,21.85
2018-09-13T08:36:06.108Z,21.91
2018-09-13T08:38:34.305Z,22.11
2018-09-13T08:41:02.513Z,22.14
2018-09-13T08:43:30.737Z,21.87
2018-09-13T08:45:58.943Z,22.12
2018-09-13T08:48:27.169Z,22.47
2018-09-13T08:50:55.461Z,22.48
2018-09-13T08:53:23.658Z,22.58
2018-09-13T08:55:51.845Z,22.70
2018-09-13T08:58:20.047Z,22.80
2018-09-13T09:00:48.332Z,22.69
2018-09-13T09:03:16.458Z,23.35
2018-09-13T09:05:44.670Z,23.17
2018-09-13T09:08:12.877Z,23.24
2018-09-13T09:10:41.069Z,23.11
2018-09-13T09:13:09.585Z,22.79
2018-09-13T09:15:37.780Z,22.67
2018-09-13T09:18:06.510Z,22.61
2018-09-13T09:20:34.725Z,22.97
2018-09-13T09:23:02.937Z,23.36
2018-09-13T09:25:31.125Z,23.30
2018-09-13T09:27:59.385Z,23.12
2018-09-13T09:30:27.589Z,23.04
2018-09-13T09:32:55.826Z,22.87
2018-09-13T09:35:24.113Z,23.01
2018-09-13T09:37:52.313Z,22.42
2018-09-13T09:40:20.551Z,22.72
2018-09-13T09:42:48.844Z,22.61
2018-09-13T09:45:17.298Z,22.48
2018-09-13T09:47:45.489Z,22.47
2018-09-13T09:50:13.817Z,22.41
2018-09-13T09:52:42.098Z,22.36
2018-09-13T09:55:10.309Z,22.42
2018-09-13T09:57:38.506Z,22.66
2018-09-13T10:00:06.713Z,22.73
2018-09-13T10:02:34.930Z,22.81
2018-09-13T10:05:03.189Z,22.08
2018-09-13T10:07:31.397Z,22.42
2018-09-13T10:09:59.614Z,22.34
2018-09-13T10:12:27.912Z,22.31
2018-09-13T10:15:01.363Z,22.34
2018-09-13T10:17:34.919Z,22.64
2018-09-13T10:20:08.573Z,22.93
2018-09-13T10:22:42.297Z,23.09
2018-09-13T10:25:15.829Z,22.89
2018-09-13T10:27:49.394Z,22.45
2018-09-13T10:30:22.927Z,22.68
2018-09-13T10:32:56.395Z,22.68
2018-09-13T10:35:29.925Z,22.68
2018-09-13T10:38:03.458Z,22.95
2018-09-13T10:40:37.043Z,23.02
2018-09-13T10:43:10.677Z,23.28
2018-09-13T10:46:46.920Z,23.15
2018-09-13T10:49:20.493Z,23.47
2018-09-13T10:51:54.022Z,23.64
2018-09-13T10:54:27.463Z,23.84
2018-09-13T10:56:55.807Z,23.75
2018-09-13T10:59:24.281Z,23.17
2018-09-13T11:01:52.514Z,23.29
2018-09-13T11:04:20.711Z,23.18
2018-09-13T11:06:49.137Z,23.13
2018-09-13T11:09:17.405Z,23.54
2018-09-13T11:11:45.753Z,23.67
2018-09-13T11:14:18.065Z,23.51
2018-09-13T11:16:46.383Z,23.40
2018-09-13T11:19:14.605Z,23.63
2018-09-13T11:21:42.943Z,24.16
2018-09-13T11:24:11.078Z,23.88
2018-09-13T11:26:41.025Z,23.83
2018-09-13T11:29:09.368Z,23.64
2018-09-13T11:31:37.654Z,23.26
2018-09-13T11:34:06.093Z,23.49
2018-09-13T11:36:34.418Z,23.43
2018-09-13T11:39:02.687Z,23.10
2018-09-13T11:41:30.966Z,23.42
2018-09-13T11:43:59.182Z,23.63
2018-09-13T11:46:27.424Z,23.59
2018-09-13T11:48:55.709Z,23.94
2018-09-13T11:51:23.953Z,23.84
2018-09-13T11:53:52.222Z,23.53
2018-09-13T11:56:20.561Z,23.96
2018-09-13T11:58:48.865Z,23.81
2018-09-13T12:01:17.098Z,23.76
2018-09-13T12:03:45.626Z,23.56
2018-09-13T12:06:13.869Z,23.48
2018-09-13T12:08:42.069Z,23.89
2018-09-13T12:11:10.293Z,23.68
2018-09-13T12:13:38.517Z,23.53
2018-09-13T12:16:06.794Z,23.72
2018-09-13T12:18:35.008Z,23.81
2018-09-13T12:21:03.387Z,23.79
2018-09-13T12:23:31.643Z,23.29
2018-09-13T12:25:59.942Z,23.27
2018-09-13T12:28:28.175Z,23.10
2018-09-13T12:30:56.389Z,23.09
2018-09-13T12:33:24.629Z,22.95
2018-09-13T12:35:52.893Z,22.96
2018-09-13T12:38:21.164Z,23.09
2018-09-13T12:40:49.405Z,23.28
2018-09-13T12:43:17.602Z,23.43
2018-09-13T12:45:45.846Z,23.32
2018-09-13T12:48:14.090Z,23.34
2018-09-13T12:50:42.358Z,23.33
2018-09-13T12:53:10.597Z,23.35
2018-09-13T12:55:43.937Z,23.55
2018-09-13T12:58:12.165Z,23.30
2018-09-13T13:00:40.386Z,23.75
2018-09-13T13:03:08.584Z,23.81
2018-09-13T13:05:36.816Z,23.94
2018-09-13T13:08:05.022Z,23.69
2018-09-13T13:10:33.278Z,23.85
2018-09-13T13:13:01.457Z,23.97
2018-09-13T13:15:29.673Z,23.90
2018-09-13T13:17:57.877Z,23.99
2018-09-13T13:20:26.305Z,24.02
2018-09-13T13:22:54.493Z,24.37
2018-09-13T13:25:22.702Z,24.10
2018-09-13T13:27:51.157Z,24.51
2018-09-13T13:30:19.436Z,24.23
2018-09-13T13:32:47.600Z,24.41
2018-09-13T13:35:15.814Z,24.68
2018-09-13T13:37:44.051Z,24.48
2018-09-13T13:40:12.279Z,24.61
2018-09-13T13:42:40.473Z,24.47
2018-09-13T13:45:08.677Z,24.44
2018-09-13T13:47:36.877Z,24.60
2018-09-13T13:50:05.264Z,24.56
2018-09-13T13:52:33.471Z,24.76
2018-09-13T13:55:01.741Z,24.91
2018-09-13T13:57:29.937Z,24.30
2018-09-13T13:59:58.367Z,24.39
2018-09-13T14:02:26.670Z,24.38
2018-09-13T14:04:55.081Z,24.42
2018-09-13T14:07:23.393Z,24.12
2018-09-13T14:09:51.644Z,24.16
2018-09-13T14:12:20.259Z,24.08
2018-09-13T14:14:48.623Z,23.88
2018-09-13T14:17:16.914Z,24.04
2018-09-13T14:19:45.258Z,23.97
2018-09-13T14:22:13.469Z,24.17
2018-09-13T14:24:41.857Z,24.00
2018-09-13T14:27:10.134Z,24.26
2018-09-13T14:29:38.479Z,24.36
2018-09-13T14:32:06.771Z,24.35
2018-09-13T14:34:35.078Z,24.42
2018-09-13T14:37:03.357Z,23.93
2018-09-13T14:39:31.622Z,23.74
2018-09-13T14:41:59.825Z,23.32
2018-09-13T14:44:28.045Z,23.37
2018-09-13T14:46:56.242Z,23.15
2018-09-13T14:49:24.549Z,23.22
2018-09-13T14:51:52.744Z,23.24
2018-09-13T14:54:21.010Z,23.25
2018-09-13T14:56:49.249Z,22.91
2018-09-13T14:59:17.553Z,22.53
2018-09-13T15:01:45.804Z,22.63
2018-09-13T15:04:14.031Z,22.44
2018-09-13T15:06:42.281Z,22.22
2018-09-13T15:09:12.365Z,22.11
2018-09-13T15:11:40.626Z,22.20
2018-09-13T15:14:08.813Z,22.09
2018-09-13T15:16:37.010Z,22.05
2018-09-13T15:19:05.209Z,21.67
2018-09-13T15:21:33.425Z,21.60
2018-09-13T15:24:01.901Z,21.44
2018-09-13T15:26:30.578Z,21.37
2018-09-13T15:28:58.765Z,21.24
2018-09-13T15:31:27.034Z,21.07
2018-09-13T15:33:55.227Z,20.95
2018-09-13T15:36:23.470Z,20.88
2018-09-13T15:38:51.661Z,20.77
2018-09-13T15:41:19.878Z,20.64
2018-09-13T15:43:48.125Z,20.51
2018-09-13T15:46:16.346Z,20.33
2018-09-13T15:48:44.739Z,20.38
2018-09-13T15:51:12.993Z,20.30
2018-09-13T15:53:41.305Z,20.29
2018-09-13T15:56:09.719Z,20.25
2018-09-13T15:58:37.925Z,20.29
2018-09-13T16:01:06.153Z,20.12
2018-09-13T16:03:34.330Z,20.01
2018-09-13T16:06:02.568Z,19.68
2018-09-13T16:08:30.770Z,19.45
2018-09-13T16:10:59.045Z,19.17
2018-09-13T16:13:27.273Z,18.72
2018-09-13T16:15:57.323Z,18.25
2018-09-13T16:18:26.423Z,18.19
2018-09-13T16:20:54.839Z,18.22
2018-09-13T16:23:22.990Z,18.13
2018-09-13T16:25:52.098Z,17.69
2018-09-13T16:28:20.298Z,17.63
2018-09-13T16:30:48.551Z,17.71
2018-09-13T16:33:16.753Z,17.46
2018-09-13T16:35:46.041Z,17.53
2018-09-13T16:38:19.601Z,17.52
2018-09-13T16:40:53.168Z,17.56
2018-09-13T16:43:26.684Z,17.70
2018-09-13T16:45:54.894Z,17.59
2018-09-13T16:48:27.261Z,17.40
2018-09-13T16:50:55.453Z,17.50
2018-09-13T16:53:23.646Z,17.44
2018-09-13T16:55:51.849Z,17.39
2018-09-13T16:58:20.049Z,17.50
2018-09-13T17:00:48.282Z,17.50
2018-09-13T17:03:16.514Z,17.46
2018-09-13T17:05:44.822Z,17.39
2018-09-13T17:08:13.030Z,17.40
2018-09-13T17:10:41.250Z,17.47
2018-09-13T17:13:09.488Z,17.30
2018-09-13T17:15:37.734Z,17.31
2018-09-13T17:18:05.942Z,17.23
2018-09-13T17:20:34.170Z,17.16
2018-09-13T17:23:02.433Z,17.19
2018-09-13T17:25:30.701Z,17.30
2018-09-13T17:27:58.993Z,17.03
2018-09-13T17:30:27.193Z,16.88
2018-09-13T17:32:55.445Z,16.88
2018-09-13T17:35:23.641Z,16.86
2018-09-13T17:38:35.922Z,16.87
2018-09-13T17:41:04.134Z,16.94
2018-09-13T17:43:32.337Z,16.92
2018-09-13T17:46:00.625Z,17.01
2018-09-13T17:48:28.981Z,16.95
2018-09-13T17:50:57.173Z,16.78
2018-09-13T17:53:25.369Z,16.79
2018-09-13T17:55:53.575Z,16.91
2018-09-13T17:58:21.783Z,16.94
2018-09-13T18:00:50.051Z,17.02
2018-09-13T18:03:18.313Z,16.86
2018-09-13T18:05:46.537Z,17.07
2018-09-13T18:08:14.743Z,17.03
2018-09-13T18:10:42.929Z,17.05
2018-09-13T18:13:11.186Z,17.28
2018-09-13T18:15:49.018Z,17.03
2018-09-13T18:18:17.296Z,17.02
2018-09-13T18:20:45.573Z,17.00
2018-09-13T18:23:13.805Z,17.16
2018-09-13T18:25:42.050Z,16.88
2018-09-13T18:28:10.233Z,16.97
2018-09-13T18:30:38.422Z,16.81
2018-09-13T18:33:06.681Z,16.72
2018-09-13T18:35:34.977Z,16.82
2018-09-13T18:38:03.338Z,16.91
2018-09-13T18:40:31.581Z,17.13
2018-09-13T18:42:59.897Z,17.09
2018-09-13T18:45:28.374Z,17.23
2018-09-13T18:47:56.873Z,17.06
2018-09-13T18:50:25.146Z,17.03
2018-09-13T18:52:53.451Z,16.82
2018-09-13T18:55:22.129Z,16.96
2018-09-13T18:57:50.425Z,16.86
2018-09-13T19:00:18.734Z,16.84
2018-09-13T19:02:47.001Z,16.68
2018-09-13T19:05:15.345Z,16.61
2018-09-13T19:07:43.581Z,16.73
2018-09-13T19:10:11.882Z,16.92
2018-09-13T19:12:40.157Z,17.09
2018-09-13T19:15:08.470Z,17.30
2018-09-13T19:17:36.745Z,17.32
2018-09-13T19:20:05.266Z,17.38
2018-09-13T19:22:33.578Z,17.29
2018-09-13T19:25:01.918Z,17.05
2018-09-13T19:27:30.205Z,17.24
2018-09-13T19:29:58.485Z,17.37
2018-09-13T19:32:26.844Z,17.45
2018-09-13T19:34:55.075Z,17.28
2018-09-13T19:37:23.359Z,17.23
2018-09-13T19:39:51.634Z,17.44
2018-09-13T19:42:19.887Z,17.31
2018-09-13T19:44:48.078Z,17.43
2018-09-13T19:47:16.271Z,17.38
2018-09-13T19:49:44.509Z,17.21
2018-09-13T19:52:12.798Z,17.14
2018-09-13T19:54:41.073Z,17.24
2018-09-13T19:57:09.362Z,17.07
2018-09-13T19:59:37.649Z,16.97
2018-09-13T20:02:05.985Z,16.93
2018-09-13T20:04:34.486Z,16.89
2018-09-13T20:07:02.638Z,17.03
2018-09-13T20:09:30.847Z,17.09
2018-09-13T20:11:59.053Z,17.25
2018-09-13T20:14:27.265Z,17.38
2018-09-13T20:16:55.495Z,17.37
2018-09-13T20:19:23.788Z,17.27
2018-09-13T20:21:52.078Z,17.08
2018-09-13T20:24:20.513Z,17.27
2018-09-13T20:26:48.945Z,17.37
2018-09-13T20:29:24.138Z,17.31
2018-09-13T20:31:52.368Z,17.11
2018-09-13T20:34:20.693Z,16.88
2018-09-13T20:36:49.316Z,16.80
2018-09-13T20:39:17.649Z,16.81
2018-09-13T20:41:45.876Z,17.12
2018-09-13T20:44:15.749Z,17.08
2018-09-13T20:46:43.945Z,17.04
2018-09-13T20:49:12.254Z,16.98
2018-09-13T20:51:40.560Z,16.86
2018-09-13T20:54:08.901Z,17.11
2018-09-13T20:56:37.214Z,17.16
2018-09-13T20:59:05.565Z,17.35
2018-09-13T21:01:33.873Z,17.32
2018-09-13T21:04:02.117Z,16.97
2018-09-13T21:06:30.384Z,16.98
2018-09-13T21:08:58.628Z,16.95
2018-09-13T21:11:27.358Z,17.06
2018-09-13T21:13:55.645Z,17.00
2018-09-13T21:16:24.158Z,17.22
2018-09-13T21:18:52.397Z,17.37
2018-09-13T21:21:20.697Z,17.36
2018-09-13T21:23:48.927Z,17.28
2018-09-13T21:26:17.190Z,17.33
2018-09-13T21:28:45.469Z,17.27
2018-09-13T21:31:13.849Z,17.10
2018-09-13T21:33:42.058Z,17.04
2018-09-13T21:36:10.356Z,17.15
2018-09-13T21:38:38.673Z,17.15
2018-09-13T21:41:06.956Z,17.15
2018-09-13T21:43:35.197Z,17.24
2018-09-13T21:46:03.410Z,17.33
2018-09-13T21:48:31.613Z,17.16
2018-09-13T21:50:59.852Z,17.26
2018-09-13T21:53:28.092Z,17.36
2018-09-13T21:55:59.309Z,17.42
2018-09-13T21:58:27.593Z,17.39
2018-09-13T22:00:55.773Z,17.27
2018-09-13T22:03:24.080Z,17.14
2018-09-13T22:05:52.350Z,17.09
2018-09-13T22:08:20.559Z,17.17
2018-09-13T22:10:48.793Z,17.11
2018-09-13T22:13:17.006Z,16.92
2018-09-13T22:15:45.317Z,17.11
2018-09-13T22:18:13.568Z,17.02
2018-09-13T22:20:41.773Z,16.94
2018-09-13T22:23:10.061Z,16.89
2018-09-13T22:25:38.357Z,16.82
2018-09-13T22:28:06.581Z,16.89
2018-09-13T22:30:34.785Z,16.89
2018-09-13T22:33:03.301Z,16.83
2018-09-13T22:35:31.597Z,16.75
2018-09-13T22:37:59.905Z,16.71
2018-09-13T22:40:28.464Z,16.64
2018-09-13T22:42:56.694Z,16.60
2018-09-13T22:45:25.029Z,16.53
2018-09-13T22:47:53.283Z,16.42
2018-09-13T22:50:21.609Z,16.30
2018-09-13T22:52:49.817Z,16.40
2018-09-13T22:55:18.173Z,16.37
2018-09-13T22:57:46.505Z,16.36
2018-09-13T23:00:14.813Z,16.29
2018-09-13T23:02:48.598Z,16.37
2018-09-13T23:05:17.510Z,16.32
2018-09-13T23:07:45.991Z,16.36
2018-09-13T23:10:14.243Z,16.40
2018-09-13T23:12:42.502Z,16.43
2018-09-13T23:15:10.801Z,16.39
2018-09-13T23:17:39.185Z,16.34
2018-09-13T23:20:07.393Z,16.16
2018-09-13T23:22:35.667Z,16.21
2018-09-13T23:25:04.117Z,16.20
2018-09-13T23:27:32.317Z,16.22
2018-09-13T23:30:00.630Z,16.19
2018-09-13T23:32:28.854Z,16.28
2018-09-13T23:34:57.110Z,16.08
2018-09-13T23:37:25.371Z,16.20
2018-09-13T23:39:53.879Z,16.33
2018-09-13T23:42:21.950Z,16.31
2018-09-13T23:44:50.265Z,16.39
2018-09-13T23:47:19.242Z,16.51
2018-09-13T23:49:47.565Z,16.47
2018-09-13T23:52:15.897Z,16.39
2018-09-13T23:54:44.115Z,16.35
2018-09-13T23:57:12.349Z,16.56
2018-09-13T23:59:40.637Z,16.66
